Time;durP1;ratioP1;P1;durP2;ratioP2;P2;SDS_P1;SDS_P2;PMS_P1;PMS_P2;Temp;Humidity;BMP_temperature;BMP_pressure;BME280_temperature;BME280_humidity;BME280_pressure;Samples;Min_cycle;Max_cycle;Signal;HPM_P1;HPM_P2
2023/08/20 00:00:18;;;;;;;12.73;2.38;;;23.10;99.90;;;;;;5053691;28;20040;-84
2023/08/20 00:02:46;;;;;;;9.77;2.88;;;23.10;99.90;;;;;;5053562;28;20049;-82
2023/08/20 00:05:12;;;;;;;15.85;3.58;;;23.00;99.90;;;;;;5053344;28;20025;-83
2023/08/20 00:07:38;;;;;;;11.48;2.63;;;23.00;99.90;;;;;;5053460;28;20528;-78
2023/08/20 00:10:05;;;;;;;13.35;2.50;;;23.00;99.90;;;;;;5053463;28;20110;-74
2023/08/20 00:12:31;;;;;;;12.32;2.88;;;23.00;99.90;;;;;;5053383;28;20481;-77
2023/08/20 00:15:06;;;;;;;9.23;2.38;;;23.00;99.90;;;;;;5053646;28;20025;-75
2023/08/20 00:17:34;;;;;;;13.35;3.15;;;23.00;99.90;;;;;;5053276;28;20060;-75
2023/08/20 00:20:00;;;;;;;9.05;3.13;;;23.00;99.90;;;;;;5053404;28;20013;-69
2023/08/20 00:22:26;;;;;;;10.70;2.70;;;22.90;99.90;;;;;;5053180;28;20025;-76
2023/08/20 00:24:55;;;;;;;9.98;2.80;;;22.90;99.90;;;;;;5053100;28;20025;-77
2023/08/20 00:27:21;;;;;;;11.40;3.20;;;23.00;99.90;;;;;;5045394;28;20040;-70
2023/08/20 00:29:47;;;;;;;11.80;2.83;;;22.90;99.90;;;;;;5053078;28;20100;-76
2023/08/20 00:32:14;;;;;;;14.30;3.03;;;22.90;99.90;;;;;;5050818;28;20033;-78
2023/08/20 00:34:40;;;;;;;10.57;2.53;;;22.90;99.90;;;;;;5052134;28;20067;-70
2023/08/20 00:37:05;;;;;;;13.25;3.63;;;22.90;99.90;;;;;;5053088;28;20108;-78
2023/08/20 00:39:31;;;;;;;10.32;2.88;;;22.90;99.90;;;;;;5053179;28;20462;-85
2023/08/20 00:41:57;;;;;;;10.45;2.92;;;22.90;99.90;;;;;;5053189;28;20075;-70
2023/08/20 00:44:23;;;;;;;11.85;3.60;;;22.90;99.90;;;;;;5053045;28;20082;-84
2023/08/20 00:46:49;;;;;;;11.35;3.80;;;22.90;99.90;;;;;;5053069;28;20482;-79
2023/08/20 00:49:15;;;;;;;9.88;2.92;;;22.90;99.90;;;;;;5052681;28;20032;-82
2023/08/20 00:51:41;;;;;;;11.77;2.85;;;22.80;99.90;;;;;;5053068;28;20022;-84
2023/08/20 00:54:07;;;;;;;9.00;2.35;;;22.80;99.90;;;;;;5052889;28;20070;-81
2023/08/20 00:56:32;;;;;;;10.43;2.90;;;22.90;99.90;;;;;;5053014;28;20036;-70
2023/08/20 00:58:58;;;;;;;9.57;3.10;;;22.90;99.90;;;;;;5051592;28;20047;-80
2023/08/20 01:01:24;;;;;;;10.43;2.92;;;22.80;99.90;;;;;;5053081;28;20454;-74
2023/08/20 01:03:50;;;;;;;10.32;3.00;;;22.80;99.90;;;;;;5052536;28;20104;-82
2023/08/20 01:06:28;;;;;;;10.80;3.05;;;22.80;99.90;;;;;;5054763;28;20040;-76
2023/08/20 01:09:05;;;;;;;11.85;3.20;;;22.80;99.90;;;;;;5057036;28;20134;-72
2023/08/20 01:11:37;;;;;;;12.20;3.58;;;22.80;99.90;;;;;;5056942;28;20056;-75
2023/08/20 01:14:03;;;;;;;10.13;2.38;;;22.80;99.90;;;;;;5056890;28;20025;-84
2023/08/20 01:16:28;;;;;;;11.68;3.60;;;22.80;99.90;;;;;;5056464;28;20029;-83
2023/08/20 01:18:54;;;;;;;13.27;3.22;;;22.80;99.90;;;;;;5055252;28;20419;-74
2023/08/20 01:21:41;;;;;;;9.88;2.95;;;22.80;99.90;;;;;;5057018;28;20104;-76
2023/08/20 01:24:45;;;;;;;10.05;2.42;;;22.80;99.90;;;;;;5056591;28;20056;-70
2023/08/20 01:27:51;;;;;;;9.70;2.88;;;22.80;99.90;;;;;;5056764;28;20037;-69
2023/08/20 01:30:19;;;;;;;11.65;2.63;;;22.80;99.90;;;;;;5024893;28;20068;-79
2023/08/20 01:32:46;;;;;;;12.93;3.15;;;22.70;99.90;;;;;;5056726;28;20017;-81
2023/08/20 01:35:16;;;;;;;12.32;3.28;;;22.70;99.90;;;;;;5056689;28;20458;-74
2023/08/20 01:37:42;;;;;;;11.48;2.55;;;22.70;99.90;;;;;;5056320;28;20025;-76
2023/08/20 01:40:10;;;;;;;13.55;3.20;;;22.70;99.90;;;;;;5056140;28;20021;-69
2023/08/20 01:42:39;;;;;;;11.25;2.97;;;22.70;99.90;;;;;;5056725;28;20032;-69
2023/08/20 01:45:06;;;;;;;13.40;2.80;;;22.70;99.90;;;;;;5055834;28;20489;-69
2023/08/20 01:47:32;;;;;;;14.68;3.17;;;22.70;99.90;;;;;;5056235;28;20119;-70
2023/08/20 01:49:58;;;;;;;12.40;3.80;;;22.70;99.90;;;;;;5056066;28;20119;-72
2023/08/20 01:52:24;;;;;;;10.20;2.95;;;22.70;99.90;;;;;;5056183;28;20029;-69
2023/08/20 01:54:50;;;;;;;10.20;3.55;;;22.60;99.90;;;;;;5056020;28;20029;-69
2023/08/20 01:57:16;;;;;;;12.18;2.88;;;22.60;99.90;;;;;;5056057;28;20536;-69
2023/08/20 01:59:42;;;;;;;9.13;3.35;;;22.70;99.90;;;;;;5055560;28;20036;-69
2023/08/20 02:02:07;;;;;;;7.88;2.80;;;22.60;99.90;;;;;;5055811;28;20039;-69
2023/08/20 02:04:33;;;;;;;13.40;2.97;;;22.60;99.90;;;;;;5055853;28;20028;-69
2023/08/20 02:06:58;;;;;;;8.80;2.90;;;22.60;99.90;;;;;;5055659;28;20482;-69
2023/08/20 02:09:24;;;;;;;14.35;3.03;;;22.60;99.90;;;;;;5055881;28;20110;-69
2023/08/20 02:11:50;;;;;;;12.93;3.33;;;22.60;99.90;;;;;;5055734;28;20039;-68
2023/08/20 02:14:16;;;;;;;14.85;3.45;;;22.50;99.90;;;;;;5055379;28;20021;-72
2023/08/20 02:16:42;;;;;;;12.88;3.53;;;22.50;99.90;;;;;;5055552;28;20033;-69
2023/08/20 02:19:08;;;;;;;10.90;3.40;;;22.50;99.90;;;;;;5055741;28;20044;-77
2023/08/20 02:21:33;;;;;;;14.98;3.83;;;22.50;99.90;;;;;;5055461;28;20110;-69
2023/08/20 02:23:59;;;;;;;13.10;3.30;;;22.50;99.90;;;;;;5055531;28;20367;-75
2023/08/20 02:26:25;;;;;;;15.60;3.30;;;22.50;99.90;;;;;;5055259;28;20029;-70
2023/08/20 02:28:50;;;;;;;11.93;3.47;;;22.50;99.90;;;;;;5055300;28;20107;-69
2023/08/20 02:31:16;;;;;;;12.23;3.58;;;22.40;99.90;;;;;;5055234;28;20033;-70
2023/08/20 02:33:41;;;;;;;11.15;3.70;;;22.40;99.90;;;;;;5055292;28;20095;-70
2023/08/20 02:36:07;;;;;;;10.88;3.67;;;22.40;99.90;;;;;;5055190;28;20409;-69
2023/08/20 02:38:33;;;;;;;11.45;3.45;;;22.40;99.90;;;;;;5055314;28;20025;-69
2023/08/20 02:40:58;;;;;;;12.80;3.63;;;22.40;99.90;;;;;;5055332;28;20078;-70
2023/08/20 02:43:24;;;;;;;11.60;3.55;;;22.40;99.90;;;;;;5053636;28;20056;-82
2023/08/20 02:45:50;;;;;;;7.60;2.92;;;22.40;99.90;;;;;;5054868;28;20448;-69
2023/08/20 02:48:15;;;;;;;11.52;3.65;;;22.40;99.90;;;;;;5054999;28;20435;-83
2023/08/20 02:50:41;;;;;;;11.13;3.50;;;22.30;99.90;;;;;;5055033;28;20043;-70
2023/08/20 02:53:07;;;;;;;11.20;3.45;;;22.30;99.90;;;;;;5055008;28;20534;-70
2023/08/20 02:55:33;;;;;;;10.45;3.03;;;22.30;99.90;;;;;;5054824;28;20035;-76
2023/08/20 02:57:59;;;;;;;10.90;3.83;;;22.30;99.90;;;;;;5054621;28;20029;-78
2023/08/20 03:00:25;;;;;;;8.23;2.85;;;22.20;99.90;;;;;;5054704;28;20537;-81
2023/08/20 03:02:50;;;;;;;8.70;3.22;;;22.20;99.90;;;;;;5053650;28;20021;-72
2023/08/20 03:05:16;;;;;;;12.77;3.58;;;22.20;99.90;;;;;;5054578;28;20036;-82
2023/08/20 03:07:41;;;;;;;9.43;3.17;;;22.20;99.90;;;;;;5054695;28;20032;-72
2023/08/20 03:10:07;;;;;;;10.13;3.22;;;22.20;99.90;;;;;;5054764;28;20100;-76
2023/08/20 03:12:33;;;;;;;7.05;2.78;;;22.20;99.90;;;;;;5054399;28;20104;-70
2023/08/20 03:14:59;;;;;;;10.02;3.75;;;22.10;99.90;;;;;;5054641;28;20466;-70
2023/08/20 03:17:25;;;;;;;9.57;3.80;;;22.10;99.90;;;;;;5054462;28;20459;-77
2023/08/20 03:19:59;;;;;;;11.02;3.67;;;22.10;99.90;;;;;;5054488;28;20036;-82
2023/08/20 03:22:26;;;;;;;10.60;3.83;;;22.10;99.90;;;;;;5054576;28;20036;-69
2023/08/20 03:24:52;;;;;;;12.82;3.85;;;22.10;99.90;;;;;;5054502;28;20020;-84
2023/08/20 03:27:17;;;;;;;13.48;3.72;;;22.10;99.90;;;;;;5054069;28;20041;-69
2023/08/20 03:29:43;;;;;;;12.38;3.80;;;22.10;99.90;;;;;;5053611;28;20051;-69
2023/08/20 03:32:09;;;;;;;9.40;3.60;;;22.00;99.90;;;;;;5054235;28;20029;-69
2023/08/20 03:34:35;;;;;;;11.60;3.53;;;22.00;99.90;;;;;;5054187;28;20497;-71
2023/08/20 03:37:01;;;;;;;13.02;3.38;;;22.00;99.90;;;;;;5054122;28;20025;-69
2023/08/20 03:39:27;;;;;;;10.18;3.58;;;22.00;99.90;;;;;;5054358;28;20083;-72
2023/08/20 03:41:53;;;;;;;13.52;4.30;;;22.00;99.90;;;;;;5053610;28;20478;-69
2023/08/20 03:44:19;;;;;;;10.48;3.78;;;21.90;99.90;;;;;;5052712;28;20050;-72
2023/08/20 03:46:45;;;;;;;12.25;3.50;;;21.90;99.90;;;;;;5053858;28;20075;-71
2023/08/20 03:49:10;;;;;;;10.68;4.10;;;21.90;99.90;;;;;;5053784;28;20064;-69
2023/08/20 03:51:36;;;;;;;11.18;3.88;;;21.90;99.90;;;;;;5053733;28;20057;-72
2023/08/20 03:54:02;;;;;;;11.60;3.47;;;21.90;99.90;;;;;;5052651;28;20112;-84
2023/08/20 03:56:28;;;;;;;10.70;3.75;;;21.90;99.90;;;;;;5053350;28;20078;-84
2023/08/20 03:58:54;;;;;;;12.13;3.50;;;21.90;99.90;;;;;;5053930;28;20029;-84
2023/08/20 04:01:19;;;;;;;12.50;3.60;;;21.80;99.90;;;;;;5053857;28;20413;-70
2023/08/20 04:03:48;;;;;;;12.63;4.05;;;21.80;99.90;;;;;;5053496;28;20082;-70
2023/08/20 04:06:14;;;;;;;10.60;3.35;;;21.80;99.90;;;;;;5053465;28;20493;-69
2023/08/20 04:08:40;;;;;;;12.88;3.97;;;21.80;99.90;;;;;;5053538;28;20021;-69
2023/08/20 04:11:06;;;;;;;10.23;3.70;;;21.80;99.90;;;;;;5053333;28;20064;-70
2023/08/20 04:13:31;;;;;;;11.15;3.78;;;21.70;99.90;;;;;;5053369;28;20082;-69
2023/08/20 04:15:57;;;;;;;9.57;3.65;;;21.80;99.90;;;;;;5053458;28;20025;-76
2023/08/20 04:18:23;;;;;;;11.52;3.13;;;21.70;99.90;;;;;;5053154;28;20046;-81
2023/08/20 04:20:53;;;;;;;9.93;3.50;;;21.70;99.90;;;;;;5053420;28;20051;-71
2023/08/20 04:23:19;;;;;;;10.32;3.90;;;21.70;99.90;;;;;;5053271;28;20071;-69
2023/08/20 04:25:46;;;;;;;8.68;3.25;;;21.60;99.90;;;;;;5052997;28;20037;-69
2023/08/20 04:28:14;;;;;;;9.77;3.78;;;21.60;99.90;;;;;;5053188;28;20025;-85
2023/08/20 04:30:40;;;;;;;9.82;3.40;;;21.60;99.90;;;;;;5053288;28;20041;-82
2023/08/20 04:33:06;;;;;;;10.65;3.75;;;21.60;99.90;;;;;;5053070;28;20027;-80
2023/08/20 04:35:31;;;;;;;8.23;2.88;;;21.60;99.90;;;;;;5053205;28;20040;-84
2023/08/20 04:37:57;;;;;;;9.88;3.70;;;21.60;99.90;;;;;;5053093;28;20021;-79
2023/08/20 04:40:23;;;;;;;12.13;3.97;;;21.50;99.90;;;;;;5052897;28;20086;-81
2023/08/20 04:42:49;;;;;;;7.78;3.33;;;21.50;99.90;;;;;;5053088;28;20082;-69
2023/08/20 04:45:17;;;;;;;9.82;3.45;;;21.50;99.90;;;;;;5053152;28;20017;-74
2023/08/20 04:47:43;;;;;;;8.40;3.25;;;21.50;99.90;;;;;;5053029;28;20167;-70
2023/08/20 04:50:09;;;;;;;10.13;3.28;;;21.40;99.90;;;;;;5053022;28;20075;-71
2023/08/20 04:52:35;;;;;;;8.55;3.53;;;21.40;99.90;;;;;;5052788;28;20025;-70
2023/08/20 04:55:01;;;;;;;11.20;4.05;;;21.40;99.90;;;;;;5052752;28;20533;-71
2023/08/20 04:57:27;;;;;;;12.50;3.90;;;21.40;99.90;;;;;;5052876;28;20112;-71
2023/08/20 04:59:53;;;;;;;10.88;3.63;;;21.40;99.90;;;;;;5052681;28;20116;-82
2023/08/20 05:02:18;;;;;;;11.95;3.85;;;21.40;99.90;;;;;;5052272;28;20021;-85
2023/08/20 05:04:44;;;;;;;11.60;4.15;;;21.30;99.90;;;;;;5052392;28;20498;-74
2023/08/20 05:07:10;;;;;;;11.60;3.90;;;21.40;99.90;;;;;;5052684;28;20512;-76
2023/08/20 05:09:35;;;;;;;12.00;4.53;;;21.40;99.90;;;;;;5052409;28;20424;-71
2023/08/20 05:12:02;;;;;;;14.18;5.00;;;21.30;99.90;;;;;;5052903;28;20029;-70
2023/08/20 05:14:28;;;;;;;14.32;3.92;;;21.30;99.90;;;;;;5052593;28;20021;-69
2023/08/20 05:16:53;;;;;;;11.93;3.60;;;21.30;99.90;;;;;;5052827;28;20551;-69
2023/08/20 05:19:19;;;;;;;11.30;3.92;;;21.30;99.90;;;;;;5052650;28;20032;-69
2023/08/20 05:21:44;;;;;;;7.10;4.10;;;21.30;99.90;;;;;;5051498;28;20023;-74
2023/08/20 05:24:10;;;;;;;12.73;4.18;;;21.30;99.90;;;;;;5052400;28;20478;-83
2023/08/20 05:26:35;;;;;;;10.63;4.40;;;21.30;99.90;;;;;;5052378;28;20156;-70
2023/08/20 05:29:01;;;;;;;10.68;4.30;;;21.30;99.90;;;;;;5052541;28;20378;-71
2023/08/20 05:31:26;;;;;;;11.30;3.72;;;21.30;99.90;;;;;;5052591;28;20044;-74
2023/08/20 05:33:52;;;;;;;14.32;4.10;;;21.20;99.90;;;;;;5052473;28;20053;-73
2023/08/20 05:36:18;;;;;;;8.55;3.78;;;21.30;99.90;;;;;;5052635;28;20029;-69
2023/08/20 05:38:43;;;;;;;9.85;3.80;;;21.30;99.90;;;;;;5052150;28;20025;-69
2023/08/20 05:41:09;;;;;;;11.18;3.55;;;21.30;99.90;;;;;;5048182;28;20068;-73
2023/08/20 05:43:36;;;;;;;8.10;3.72;;;21.20;99.90;;;;;;5060547;28;20032;-69
2023/08/20 05:46:02;;;;;;;13.93;4.13;;;21.20;99.90;;;;;;5052014;28;20558;-88
2023/08/20 05:48:28;;;;;;;9.73;3.72;;;21.20;99.90;;;;;;5052028;28;20049;-84
2023/08/20 05:50:54;;;;;;;9.95;3.45;;;21.20;99.90;;;;;;5052384;28;20060;-74
2023/08/20 05:53:19;;;;;;;12.57;3.80;;;21.20;99.90;;;;;;5054995;28;20067;-82
2023/08/20 05:55:45;;;;;;;11.73;3.85;;;21.20;99.90;;;;;;5053758;28;20125;-77
2023/08/20 05:58:11;;;;;;;13.50;4.10;;;21.20;99.90;;;;;;5055828;28;20025;-86
2023/08/20 06:00:36;;;;;;;10.15;3.30;;;21.20;99.90;;;;;;5055874;28;20359;-82
2023/08/20 06:03:02;;;;;;;9.32;3.60;;;21.20;99.90;;;;;;5055831;28;20424;-85
2023/08/20 06:05:28;;;;;;;11.27;3.65;;;21.20;99.90;;;;;;5054483;28;20040;-87
2023/08/20 06:07:54;;;;;;;10.23;3.10;;;21.20;99.90;;;;;;5055491;28;20475;-71
2023/08/20 06:10:19;;;;;;;10.52;3.08;;;21.20;99.90;;;;;;5055608;28;20056;-69
2023/08/20 06:12:45;;;;;;;11.75;3.70;;;21.30;99.90;;;;;;5055421;28;20022;-68
2023/08/20 06:15:10;;;;;;;8.52;2.65;;;21.30;99.90;;;;;;5053560;28;20351;-69
2023/08/20 06:17:36;;;;;;;8.80;3.28;;;21.30;99.90;;;;;;5055030;28;20024;-68
2023/08/20 06:20:05;;;;;;;8.98;2.72;;;21.30;99.90;;;;;;5055329;28;20020;-68
2023/08/20 06:22:31;;;;;;;8.60;3.20;;;21.30;99.90;;;;;;5053634;28;20052;-68
2023/08/20 06:24:57;;;;;;;8.70;3.08;;;21.30;99.90;;;;;;5055048;28;20025;-72
2023/08/20 06:27:23;;;;;;;10.73;3.40;;;21.30;99.90;;;;;;5052871;28;20557;-69
2023/08/20 06:29:49;;;;;;;6.15;2.53;;;21.30;99.90;;;;;;5055347;28;20064;-68
2023/08/20 06:32:14;;;;;;;8.15;3.17;;;21.30;99.90;;;;;;5054213;28;20115;-68
2023/08/20 06:34:40;;;;;;;7.93;2.80;;;21.30;99.90;;;;;;5052961;28;20477;-71
2023/08/20 06:37:05;;;;;;;9.07;2.97;;;21.40;99.90;;;;;;5053964;28;20064;-69
2023/08/20 06:39:31;;;;;;;10.55;3.20;;;21.40;99.90;;;;;;5052291;28;20482;-72
2023/08/20 06:41:57;;;;;;;7.18;2.78;;;21.40;99.90;;;;;;5049024;28;20130;-69
2023/08/20 06:44:22;;;;;;;7.38;2.95;;;21.40;99.90;;;;;;5051750;28;20032;-70
2023/08/20 06:46:48;;;;;;;7.35;2.60;;;21.50;99.90;;;;;;5035860;28;20045;-69
2023/08/20 06:49:13;;;;;;;8.27;2.28;;;21.50;99.90;;;;;;5053197;28;20482;-81
2023/08/20 06:51:39;;;;;;;6.55;1.95;;;21.60;99.90;;;;;;5050506;28;20056;-69
2023/08/20 06:54:06;;;;;;;6.15;2.40;;;21.70;99.90;;;;;;5052285;28;20021;-70
2023/08/20 06:56:32;;;;;;;8.20;2.35;;;21.70;99.90;;;;;;5052459;28;20064;-79
2023/08/20 06:58:57;;;;;;;9.55;2.40;;;21.70;99.90;;;;;;5041644;28;20029;-72
2023/08/20 07:01:23;;;;;;;10.27;2.63;;;21.70;99.90;;;;;;5053064;28;20509;-83
2023/08/20 07:03:49;;;;;;;9.05;2.60;;;21.80;99.90;;;;;;5046592;28;20025;-69
2023/08/20 07:06:16;;;;;;;8.35;2.08;;;21.90;99.90;;;;;;5048998;28;20067;-67
2023/08/20 07:08:42;;;;;;;7.68;1.50;;;21.90;99.90;;;;;;5048574;28;20449;-69
2023/08/20 07:11:08;;;;;;;8.35;1.70;;;21.90;99.90;;;;;;5049523;28;20513;-69
2023/08/20 07:13:33;;;;;;;8.45;2.00;;;21.90;99.90;;;;;;5051464;28;20025;-69
2023/08/20 07:15:59;;;;;;;7.50;1.42;;;21.90;99.90;;;;;;5049310;28;20037;-69
2023/08/20 07:18:25;;;;;;;6.25;1.75;;;22.00;99.90;;;;;;5043985;28;20371;-69
2023/08/20 07:20:52;;;;;;;5.57;1.00;;;22.00;99.90;;;;;;5050844;28;20025;-73
2023/08/20 07:23:17;;;;;;;7.18;1.90;;;22.00;99.90;;;;;;5051490;28;20048;-68
2023/08/20 07:25:44;;;;;;;8.20;1.67;;;22.10;99.90;;;;;;5050866;28;20044;-69
2023/08/20 07:28:11;;;;;;;9.20;2.20;;;22.10;99.90;;;;;;5051903;28;20036;-70
2023/08/20 07:30:36;;;;;;;9.38;2.25;;;22.10;99.90;;;;;;5051652;28;20091;-69
2023/08/20 07:33:03;;;;;;;7.45;2.53;;;22.10;99.90;;;;;;5046070;28;20025;-68
2023/08/20 07:35:28;;;;;;;8.40;2.30;;;22.20;99.90;;;;;;5051070;28;20474;-72
2023/08/20 07:37:54;;;;;;;7.22;2.13;;;22.20;99.90;;;;;;5049801;28;20051;-68
2023/08/20 07:40:20;;;;;;;10.05;2.72;;;22.20;99.90;;;;;;5051845;28;20478;-68
2023/08/20 07:42:45;;;;;;;7.53;1.85;;;22.30;99.90;;;;;;5051305;28;20028;-68
2023/08/20 07:45:11;;;;;;;6.90;1.83;;;22.30;99.90;;;;;;5051944;28;20037;-69
2023/08/20 07:47:37;;;;;;;5.57;1.52;;;22.30;99.90;;;;;;5052803;28;20029;-69
2023/08/20 07:50:04;;;;;;;7.93;2.05;;;22.40;99.90;;;;;;5050497;28;20033;-68
2023/08/20 07:52:30;;;;;;;7.22;1.88;;;22.40;99.90;;;;;;5052245;28;20033;-69
2023/08/20 07:54:56;;;;;;;8.18;2.38;;;22.50;99.90;;;;;;5051630;28;20021;-70
2023/08/20 07:57:23;;;;;;;5.95;1.90;;;22.50;99.90;;;;;;5051547;28;20032;-69
2023/08/20 07:59:51;;;;;;;7.15;2.00;;;22.50;99.90;;;;;;5053820;28;20530;-69
2023/08/20 08:02:18;;;;;;;4.53;1.90;;;22.60;99.90;;;;;;5052881;28;20025;-69
2023/08/20 08:04:44;;;;;;;7.97;2.20;;;22.60;99.90;;;;;;5048377;28;20021;-69
2023/08/20 08:07:12;;;;;;;6.50;2.47;;;22.70;99.90;;;;;;5033556;28;20112;-69
2023/08/20 08:09:38;;;;;;;9.25;1.95;;;22.70;99.90;;;;;;5033712;28;20026;-70
2023/08/20 08:12:04;;;;;;;7.97;3.10;;;22.70;99.90;;;;;;5050842;28;20106;-69
2023/08/20 08:14:30;;;;;;;5.75;2.45;;;22.80;99.90;;;;;;5053455;28;20055;-70
2023/08/20 08:16:55;;;;;;;7.28;2.58;;;22.80;99.90;;;;;;5053027;28;20529;-69
2023/08/20 08:19:21;;;;;;;6.47;2.47;;;22.80;99.90;;;;;;5053473;28;20124;-69
2023/08/20 08:21:47;;;;;;;5.25;2.20;;;22.90;99.90;;;;;;5052948;28;20112;-69
2023/08/20 08:24:14;;;;;;;10.70;3.42;;;22.90;99.90;;;;;;5053024;28;20371;-69
2023/08/20 08:26:40;;;;;;;7.53;2.70;;;22.90;99.90;;;;;;5051671;28;20484;-69
2023/08/20 08:29:07;;;;;;;6.93;2.90;;;23.00;99.90;;;;;;5053212;28;20013;-69
2023/08/20 08:31:33;;;;;;;5.88;1.92;;;23.10;99.90;;;;;;5053048;28;20111;-69
2023/08/20 08:33:59;;;;;;;6.93;2.72;;;23.10;99.90;;;;;;5053059;28;20485;-69
2023/08/20 08:36:25;;;;;;;6.32;2.47;;;23.10;99.90;;;;;;5052884;28;20029;-69
2023/08/20 08:38:54;;;;;;;7.00;2.72;;;23.20;99.90;;;;;;5053156;28;20024;-69
2023/08/20 08:41:22;;;;;;;5.38;2.22;;;23.20;99.90;;;;;;5053448;28;20035;-69
2023/08/20 08:43:49;;;;;;;7.07;2.70;;;23.20;99.90;;;;;;5053171;28;20021;-68
2023/08/20 08:46:15;;;;;;;6.43;2.67;;;23.30;99.90;;;;;;5052451;28;20025;-69
2023/08/20 08:48:43;;;;;;;6.75;2.65;;;23.30;99.90;;;;;;5052477;28;20032;-69
2023/08/20 08:51:09;;;;;;;5.90;2.88;;;23.40;99.90;;;;;;5052957;28;20539;-70
2023/08/20 08:53:35;;;;;;;6.03;2.35;;;23.40;99.90;;;;;;5052981;28;20021;-70
2023/08/20 08:56:02;;;;;;;7.47;2.35;;;23.40;99.90;;;;;;5052760;28;20017;-69
2023/08/20 08:58:28;;;;;;;4.88;2.17;;;23.40;99.90;;;;;;5052921;28;20033;-69
2023/08/20 09:00:54;;;;;;;6.18;2.25;;;23.50;99.90;;;;;;5052411;28;20026;-70
2023/08/20 09:03:20;;;;;;;7.90;2.75;;;23.50;99.90;;;;;;5052917;28;20040;-70
2023/08/20 09:06:00;;;;;;;4.78;2.13;;;23.60;99.90;;;;;;5049853;28;20059;-71
2023/08/20 09:08:28;;;;;;;4.85;2.05;;;23.60;99.50;;;;;;5050227;28;20044;-70
2023/08/20 09:10:55;;;;;;;4.15;1.73;;;23.60;99.60;;;;;;5052290;28;20053;-70
2023/08/20 09:13:33;;;;;;;3.75;1.75;;;23.70;99.70;;;;;;5052832;28;20128;-70
2023/08/20 09:16:02;;;;;;;6.22;1.95;;;23.70;99.60;;;;;;5051879;28;20033;-69
2023/08/20 09:18:29;;;;;;;7.18;2.10;;;23.70;99.40;;;;;;5052670;28;20032;-70
2023/08/20 09:20:54;;;;;;;6.75;2.17;;;23.70;99.40;;;;;;5052678;28;20028;-72
2023/08/20 09:23:20;;;;;;;5.68;1.80;;;23.70;99.40;;;;;;5051614;28;20108;-80
2023/08/20 09:25:46;;;;;;;4.63;0.95;;;23.70;99.30;;;;;;5050126;28;20364;-70
2023/08/20 09:28:12;;;;;;;6.40;1.63;;;23.80;98.50;;;;;;5054951;28;20044;-69
2023/08/20 09:30:39;;;;;;;3.50;0.98;;;23.80;98.60;;;;;;5055324;28;20037;-70
2023/08/20 09:33:10;;;;;;;3.38;1.05;;;23.80;98.70;;;;;;5052230;28;20040;-69
2023/08/20 09:35:36;;;;;;;5.13;1.30;;;23.90;98.90;;;;;;5055708;28;20171;-70
2023/08/20 09:38:04;;;;;;;4.55;1.33;;;23.90;98.40;;;;;;5055551;28;20108;-81
2023/08/20 09:40:30;;;;;;;3.95;1.55;;;23.90;98.40;;;;;;5056100;28;20036;-69
2023/08/20 09:42:57;;;;;;;3.97;1.33;;;23.90;98.80;;;;;;5056049;28;20025;-69
2023/08/20 09:45:25;;;;;;;5.15;1.60;;;24.00;99.00;;;;;;5053429;28;20025;-72
2023/08/20 09:47:56;;;;;;;5.55;1.75;;;24.00;99.10;;;;;;5056010;28;20083;-69
2023/08/20 09:50:23;;;;;;;8.02;2.33;;;24.00;97.70;;;;;;5055475;28;20098;-77
2023/08/20 09:53:05;;;;;;;5.88;2.30;;;24.10;98.50;;;;;;5055546;28;20025;-71
2023/08/20 09:55:36;;;;;;;7.70;2.92;;;24.10;99.90;;;;;;5049768;28;20032;-69
2023/08/20 09:58:03;;;;;;;13.15;5.93;;;24.10;99.90;;;;;;5055036;28;20029;-71
2023/08/20 10:00:28;;;;;;;12.45;4.88;;;24.10;99.90;;;;;;5050350;28;20467;-80
2023/08/20 10:02:55;;;;;;;13.73;9.27;;;24.20;99.90;;;;;;5054045;28;20028;-69
2023/08/20 10:05:22;;;;;;;17.45;10.18;;;24.10;99.90;;;;;;5039713;28;20025;-71
2023/08/20 10:07:49;;;;;;;19.27;13.07;;;24.20;99.90;;;;;;5048150;28;20098;-69
2023/08/20 10:10:16;;;;;;;15.18;10.23;;;24.20;99.90;;;;;;5038967;28;20074;-69
2023/08/20 10:12:43;;;;;;;13.43;7.93;;;24.20;99.90;;;;;;5047944;28;20017;-70
2023/08/20 10:15:10;;;;;;;7.10;3.03;;;24.20;99.90;;;;;;5048722;28;20025;-70
2023/08/20 10:17:38;;;;;;;8.13;3.95;;;24.30;99.10;;;;;;5042493;28;20466;-71
2023/08/20 10:20:05;;;;;;;11.90;4.57;;;24.30;99.70;;;;;;5039961;28;20025;-69
2023/08/20 10:22:38;;;;;;;9.90;3.22;;;24.30;99.90;;;;;;5046168;28;20040;-69
2023/08/20 10:25:11;;;;;;;6.88;3.13;;;24.30;99.90;;;;;;5054665;28;20105;-68
2023/08/20 10:27:42;;;;;;;5.63;2.42;;;24.30;99.90;;;;;;5043721;28;20028;-74
2023/08/20 10:30:17;;;;;;;4.50;1.90;;;24.30;99.80;;;;;;5051484;28;20064;-69
2023/08/20 10:32:57;;;;;;;7.68;2.28;;;24.40;99.70;;;;;;5033230;28;20029;-69
2023/08/20 10:35:28;;;;;;;6.53;1.90;;;24.40;99.70;;;;;;5043807;28;20018;-69
2023/08/20 10:38:11;;;;;;;6.15;2.05;;;24.40;99.60;;;;;;5043879;28;20032;-70
2023/08/20 10:40:56;;;;;;;5.70;1.70;;;24.40;99.50;;;;;;5042224;28;20029;-69
2023/08/20 10:43:40;;;;;;;4.95;1.83;;;24.40;99.10;;;;;;5041531;28;20101;-70
2023/08/20 10:46:20;;;;;;;6.78;1.80;;;24.40;98.90;;;;;;5049670;28;20128;-68
2023/08/20 10:49:01;;;;;;;4.68;1.40;;;24.40;98.30;;;;;;5049381;28;20025;-68
2023/08/20 10:51:37;;;;;;;4.07;1.17;;;24.50;98.40;;;;;;5034740;28;20479;-68
2023/08/20 10:54:05;;;;;;;4.68;1.58;;;24.40;98.30;;;;;;5035819;28;20426;-71
2023/08/20 10:57:00;;;;;;;9.00;1.83;;;24.40;98.20;;;;;;5033989;28;20452;-71
2023/08/20 10:59:27;;;;;;;3.67;0.90;;;24.50;98.20;;;;;;5045440;28;20036;-68
2023/08/20 11:01:55;;;;;;;6.45;1.35;;;24.50;98.00;;;;;;5046329;28;20023;-68
2023/08/20 11:04:28;;;;;;;4.88;1.23;;;24.50;97.90;;;;;;5037124;28;20029;-68
2023/08/20 11:06:55;;;;;;;4.38;0.98;;;24.50;96.50;;;;;;5041177;28;20505;-68
2023/08/20 11:09:28;;;;;;;3.95;1.48;;;24.50;96.10;;;;;;5034126;28;20462;-68
2023/08/20 11:11:54;;;;;;;4.47;1.15;;;24.60;97.30;;;;;;5042020;28;20028;-67
2023/08/20 11:14:20;;;;;;;6.35;1.60;;;24.60;97.70;;;;;;5042030;28;20035;-67
2023/08/20 11:16:48;;;;;;;6.97;1.10;;;24.60;97.60;;;;;;5040603;28;20029;-73
2023/08/20 11:19:14;;;;;;;5.75;1.50;;;24.60;97.70;;;;;;5044697;28;20040;-68
2023/08/20 11:21:42;;;;;;;8.70;1.90;;;24.50;97.80;;;;;;5044380;28;20029;-68
2023/08/20 11:24:08;;;;;;;8.68;5.18;;;24.60;97.60;;;;;;5035845;28;20475;-67
2023/08/20 11:26:35;;;;;;;4.97;2.55;;;24.60;97.60;;;;;;5046544;28;20037;-68
2023/08/20 11:29:02;;;;;;;4.43;1.20;;;24.60;97.00;;;;;;5045881;28;20033;-75
2023/08/20 11:31:29;;;;;;;3.55;1.00;;;24.60;95.40;;;;;;5042777;28;20033;-68
2023/08/20 11:33:57;;;;;;;4.40;1.20;;;24.60;95.50;;;;;;5050596;28;20100;-68
2023/08/20 11:36:23;;;;;;;5.10;1.13;;;24.60;95.40;;;;;;5044900;28;20104;-70
2023/08/20 11:38:55;;;;;;;4.57;1.10;;;24.70;96.80;;;;;;5033521;28;20057;-70
2023/08/20 11:41:21;;;;;;;;;;;24.70;95.80;;;;;;5034280;28;20048;-72
2023/08/20 11:43:47;;;;;;;3.88;1.00;;;24.70;95.30;;;;;;5045565;28;19948;-69
2023/08/20 11:46:19;;;;;;;3.92;1.02;;;24.70;94.60;;;;;;5033242;28;20064;-72
2023/08/20 11:49:03;;;;;;;6.85;3.20;;;24.80;94.40;;;;;;5045648;28;20506;-79
2023/08/20 11:51:30;;;;;;;6.15;1.17;;;24.80;95.00;;;;;;5038716;28;20032;-72
2023/08/20 11:53:57;;;;;;;6.45;1.13;;;24.70;96.00;;;;;;5045766;28;20114;-73
2023/08/20 11:56:22;;;;;;;4.72;1.80;;;24.80;96.90;;;;;;5049780;28;20075;-78
2023/08/20 11:58:52;;;;;;;7.05;1.35;;;24.80;97.20;;;;;;5052946;28;20021;-70
2023/08/20 12:01:19;;;;;;;3.78;1.10;;;24.80;97.30;;;;;;5050279;28;20028;-70
2023/08/20 12:03:45;;;;;;;4.03;1.20;;;24.80;97.50;;;;;;5040411;28;20022;-68
2023/08/20 12:06:20;;;;;;;5.82;1.25;;;24.80;97.50;;;;;;5046011;28;20385;-78
2023/08/20 12:08:46;;;;;;;4.60;0.98;;;24.80;97.50;;;;;;5048985;28;20079;-70
2023/08/20 12:11:13;;;;;;;4.80;1.00;;;24.80;97.60;;;;;;5052845;28;20024;-69
2023/08/20 12:13:38;;;;;;;6.50;1.80;;;24.80;97.60;;;;;;5052758;28;20033;-71
2023/08/20 12:16:04;;;;;;;3.97;1.10;;;24.80;97.40;;;;;;5051128;28;20474;-73
2023/08/20 12:18:31;;;;;;;5.15;1.60;;;24.80;97.50;;;;;;5052922;28;20155;-70
2023/08/20 12:20:56;;;;;;;4.60;1.48;;;24.80;97.20;;;;;;5051302;28;20044;-69
2023/08/20 12:23:22;;;;;;;4.75;1.25;;;24.80;97.30;;;;;;5052667;28;20478;-69
2023/08/20 12:25:52;;;;;;;6.72;1.58;;;24.90;97.20;;;;;;5051862;28;20072;-69
2023/08/20 12:28:18;;;;;;;3.78;1.40;;;24.90;97.10;;;;;;5052671;28;20024;-69
2023/08/20 12:30:44;;;;;;;5.65;1.25;;;24.90;97.30;;;;;;5051982;28;20432;-70
2023/08/20 12:33:10;;;;;;;6.53;1.30;;;24.90;97.10;;;;;;5053125;28;20020;-69
2023/08/20 12:35:36;;;;;;;7.22;1.17;;;24.90;96.50;;;;;;5048395;28;20018;-69
2023/08/20 12:38:02;;;;;;;4.15;0.80;;;25.00;96.60;;;;;;5047299;28;20101;-75
2023/08/20 12:40:28;;;;;;;3.03;1.00;;;25.00;96.40;;;;;;5047010;28;20098;-76
2023/08/20 12:42:54;;;;;;;4.93;1.25;;;25.00;96.30;;;;;;5049312;28;20076;-78